sensor_id;sensor_type;location;lat;lon;timestamp;P1;durP1;ratioP1;P2;durP2;ratioP2
5987;SDS011;3021;51.000;6.980;2022-12-10T00:00:21;60.42;;;28.88;;
5987;SDS011;3021;51.000;6.980;2022-12-10T00:02:46;59.50;;;29.30;;
5987;SDS011;3021;51.000;6.980;2022-12-10T00:05:11;57.10;;;27.55;;
5987;SDS011;3021;51.000;6.980;2022-12-10T00:07:37;60.03;;;29.13;;
5987;SDS011;3021;51.000;6.980;2022-12-10T00:10:02;59.67;;;28.30;;
5987;SDS011;3021;51.000;6.980;2022-12-10T00:12:28;58.42;;;28.83;;
5987;SDS011;3021;51.000;6.980;2022-12-10T00:14:53;55.97;;;26.48;;
5987;SDS011;3021;51.000;6.980;2022-12-10T00:20:24;57.22;;;27.98;;
5987;SDS011;3021;51.000;6.980;2022-12-10T00:22:49;59.33;;;27.98;;
5987;SDS011;3021;51.000;6.980;2022-12-10T00:25:15;62.40;;;28.67;;
5987;SDS011;3021;51.000;6.980;2022-12-10T00:27:40;57.40;;;27.23;;
5987;SDS011;3021;51.000;6.980;2022-12-10T00:30:06;56.65;;;26.75;;
5987;SDS011;3021;51.000;6.980;2022-12-10T00:32:31;56.08;;;26.05;;
5987;SDS011;3021;51.000;6.980;2022-12-10T00:34:56;59.17;;;26.92;;
5987;SDS011;3021;51.000;6.980;2022-12-10T00:37:22;61.30;;;27.42;;
5987;SDS011;3021;51.000;6.980;2022-12-10T00:39:47;64.45;;;27.45;;
5987;SDS011;3021;51.000;6.980;2022-12-10T00:42:12;62.83;;;27.95;;
5987;SDS011;3021;51.000;6.980;2022-12-10T00:44:38;61.55;;;27.33;;
5987;SDS011;3021;51.000;6.980;2022-12-10T00:47:03;58.63;;;27.25;;
5987;SDS011;3021;51.000;6.980;2022-12-10T00:49:28;61.53;;;25.98;;
5987;SDS011;3021;51.000;6.980;2022-12-10T00:51:53;57.63;;;26.23;;
5987;SDS011;3021;51.000;6.980;2022-12-10T00:54:19;60.70;;;27.15;;
5987;SDS011;3021;51.000;6.980;2022-12-10T00:56:45;54.85;;;25.42;;
5987;SDS011;3021;51.000;6.980;2022-12-10T00:59:10;60.08;;;27.30;;
5987;SDS011;3021;51.000;6.980;2022-12-10T01:01:36;66.28;;;28.40;;
5987;SDS011;3021;51.000;6.980;2022-12-10T01:04:09;57.90;;;26.15;;
5987;SDS011;3021;51.000;6.980;2022-12-10T01:06:40;58.13;;;25.88;;
5987;SDS011;3021;51.000;6.980;2022-12-10T01:09:07;62.45;;;27.05;;
5987;SDS011;3021;51.000;6.980;2022-12-10T01:11:36;58.95;;;26.83;;
5987;SDS011;3021;51.000;6.980;2022-12-10T01:14:02;60.92;;;27.60;;
5987;SDS011;3021;51.000;6.980;2022-12-10T01:16:29;61.47;;;27.17;;
5987;SDS011;3021;51.000;6.980;2022-12-10T01:18:55;65.70;;;29.08;;
5987;SDS011;3021;51.000;6.980;2022-12-10T01:21:22;61.13;;;25.88;;
5987;SDS011;3021;51.000;6.980;2022-12-10T01:23:49;65.97;;;26.42;;
5987;SDS011;3021;51.000;6.980;2022-12-10T01:26:18;64.22;;;28.38;;
5987;SDS011;3021;51.000;6.980;2022-12-10T01:28:45;70.82;;;28.73;;
5987;SDS011;3021;51.000;6.980;2022-12-10T01:31:15;66.40;;;28.20;;
5987;SDS011;3021;51.000;6.980;2022-12-10T01:33:44;68.20;;;28.70;;
5987;SDS011;3021;51.000;6.980;2022-12-10T01:36:12;61.85;;;26.63;;
5987;SDS011;3021;51.000;6.980;2022-12-10T01:38:39;63.10;;;27.77;;
5987;SDS011;3021;51.000;6.980;2022-12-10T01:41:05;62.83;;;26.92;;
5987;SDS011;3021;51.000;6.980;2022-12-10T01:43:49;60.75;;;27.50;;
5987;SDS011;3021;51.000;6.980;2022-12-10T01:46:21;63.88;;;27.20;;
5987;SDS011;3021;51.000;6.980;2022-12-10T01:48:48;60.95;;;26.00;;
5987;SDS011;3021;51.000;6.980;2022-12-10T01:51:14;60.90;;;25.50;;
5987;SDS011;3021;51.000;6.980;2022-12-10T01:53:40;59.28;;;26.80;;
5987;SDS011;3021;51.000;6.980;2022-12-10T01:56:08;58.75;;;25.55;;
5987;SDS011;3021;51.000;6.980;2022-12-10T01:58:35;58.22;;;25.65;;
5987;SDS011;3021;51.000;6.980;2022-12-10T02:04:01;56.40;;;24.23;;
5987;SDS011;3021;51.000;6.980;2022-12-10T02:11:55;55.67;;;24.27;;
5987;SDS011;3021;51.000;6.980;2022-12-10T02:19:56;53.42;;;23.70;;
5987;SDS011;3021;51.000;6.980;2022-12-10T02:22:34;55.10;;;24.02;;
5987;SDS011;3021;51.000;6.980;2022-12-10T02:25:04;53.40;;;23.48;;
5987;SDS011;3021;51.000;6.980;2022-12-10T02:27:35;58.72;;;25.67;;
5987;SDS011;3021;51.000;6.980;2022-12-10T02:30:16;61.05;;;25.92;;
5987;SDS011;3021;51.000;6.980;2022-12-10T02:32:41;58.67;;;24.35;;
5987;SDS011;3021;51.000;6.980;2022-12-10T02:35:21;56.30;;;25.48;;
5987;SDS011;3021;51.000;6.980;2022-12-10T02:37:55;52.03;;;22.90;;
5987;SDS011;3021;51.000;6.980;2022-12-10T02:40:26;55.60;;;24.27;;
5987;SDS011;3021;51.000;6.980;2022-12-10T02:42:57;59.00;;;25.77;;
5987;SDS011;3021;51.000;6.980;2022-12-10T02:45:23;58.90;;;25.95;;
5987;SDS011;3021;51.000;6.980;2022-12-10T02:47:53;56.38;;;24.48;;
5987;SDS011;3021;51.000;6.980;2022-12-10T02:50:21;60.22;;;25.02;;
5987;SDS011;3021;51.000;6.980;2022-12-10T02:52:47;57.63;;;24.70;;
5987;SDS011;3021;51.000;6.980;2022-12-10T02:55:13;58.55;;;24.95;;
5987;SDS011;3021;51.000;6.980;2022-12-10T02:57:47;64.43;;;26.25;;
5987;SDS011;3021;51.000;6.980;2022-12-10T03:00:20;56.63;;;25.92;;
5987;SDS011;3021;51.000;6.980;2022-12-10T03:05:42;61.40;;;25.73;;
5987;SDS011;3021;51.000;6.980;2022-12-10T03:08:19;56.20;;;24.35;;
5987;SDS011;3021;51.000;6.980;2022-12-10T03:10:57;55.65;;;24.52;;
5987;SDS011;3021;51.000;6.980;2022-12-10T03:13:37;57.65;;;25.35;;
5987;SDS011;3021;51.000;6.980;2022-12-10T03:16:08;58.83;;;25.98;;
5987;SDS011;3021;51.000;6.980;2022-12-10T03:18:35;57.45;;;25.52;;
5987;SDS011;3021;51.000;6.980;2022-12-10T03:21:03;62.10;;;26.60;;
5987;SDS011;3021;51.000;6.980;2022-12-10T03:23:31;54.58;;;25.02;;
5987;SDS011;3021;51.000;6.980;2022-12-10T03:26:00;56.08;;;24.77;;
5987;SDS011;3021;51.000;6.980;2022-12-10T03:28:26;60.55;;;25.73;;
5987;SDS011;3021;51.000;6.980;2022-12-10T03:30:55;56.50;;;23.98;;
5987;SDS011;3021;51.000;6.980;2022-12-10T03:33:22;57.50;;;25.88;;
5987;SDS011;3021;51.000;6.980;2022-12-10T03:35:47;57.53;;;25.90;;
5987;SDS011;3021;51.000;6.980;2022-12-10T03:38:13;60.65;;;25.88;;
5987;SDS011;3021;51.000;6.980;2022-12-10T03:40:39;53.08;;;23.85;;
5987;SDS011;3021;51.000;6.980;2022-12-10T03:43:04;54.95;;;24.35;;
5987;SDS011;3021;51.000;6.980;2022-12-10T03:45:29;57.33;;;25.92;;
5987;SDS011;3021;51.000;6.980;2022-12-10T03:47:55;57.22;;;26.88;;
5987;SDS011;3021;51.000;6.980;2022-12-10T03:50:20;55.65;;;25.25;;
5987;SDS011;3021;51.000;6.980;2022-12-10T03:52:45;55.90;;;24.90;;
5987;SDS011;3021;51.000;6.980;2022-12-10T03:55:11;58.10;;;25.58;;
5987;SDS011;3021;51.000;6.980;2022-12-10T03:57:36;58.30;;;25.25;;
5987;SDS011;3021;51.000;6.980;2022-12-10T04:00:03;54.55;;;23.52;;
5987;SDS011;3021;51.000;6.980;2022-12-10T04:02:29;56.40;;;24.67;;
5987;SDS011;3021;51.000;6.980;2022-12-10T04:04:54;55.40;;;25.33;;
5987;SDS011;3021;51.000;6.980;2022-12-10T04:07:20;57.65;;;25.65;;
5987;SDS011;3021;51.000;6.980;2022-12-10T04:09:45;55.38;;;24.85;;
5987;SDS011;3021;51.000;6.980;2022-12-10T04:12:10;56.42;;;25.30;;
5987;SDS011;3021;51.000;6.980;2022-12-10T04:14:36;57.88;;;25.00;;
5987;SDS011;3021;51.000;6.980;2022-12-10T04:17:20;61.15;;;25.98;;
5987;SDS011;3021;51.000;6.980;2022-12-10T04:19:45;59.08;;;25.80;;
5987;SDS011;3021;51.000;6.980;2022-12-10T04:22:10;59.92;;;26.40;;
5987;SDS011;3021;51.000;6.980;2022-12-10T04:24:54;64.28;;;27.10;;
5987;SDS011;3021;51.000;6.980;2022-12-10T04:27:38;62.70;;;26.65;;
5987;SDS011;3021;51.000;6.980;2022-12-10T04:30:05;61.20;;;26.80;;
5987;SDS011;3021;51.000;6.980;2022-12-10T04:32:32;58.95;;;24.95;;
5987;SDS011;3021;51.000;6.980;2022-12-10T04:34:57;59.33;;;26.08;;
5987;SDS011;3021;51.000;6.980;2022-12-10T04:37:23;66.43;;;27.85;;
5987;SDS011;3021;51.000;6.980;2022-12-10T04:39:49;64.32;;;27.40;;
5987;SDS011;3021;51.000;6.980;2022-12-10T04:42:15;67.32;;;27.50;;
5987;SDS011;3021;51.000;6.980;2022-12-10T04:44:40;60.35;;;26.95;;
5987;SDS011;3021;51.000;6.980;2022-12-10T04:47:06;61.90;;;28.10;;
5987;SDS011;3021;51.000;6.980;2022-12-10T04:49:33;62.83;;;26.52;;
5987;SDS011;3021;51.000;6.980;2022-12-10T04:51:58;67.97;;;28.60;;
5987;SDS011;3021;51.000;6.980;2022-12-10T04:54:24;66.50;;;27.85;;
5987;SDS011;3021;51.000;6.980;2022-12-10T04:56:49;68.30;;;29.10;;
5987;SDS011;3021;51.000;6.980;2022-12-10T04:59:15;66.03;;;27.73;;
5987;SDS011;3021;51.000;6.980;2022-12-10T05:01:41;63.35;;;27.80;;
5987;SDS011;3021;51.000;6.980;2022-12-10T05:04:07;60.70;;;27.75;;
5987;SDS011;3021;51.000;6.980;2022-12-10T05:06:34;68.35;;;28.83;;
5987;SDS011;3021;51.000;6.980;2022-12-10T05:09:00;63.85;;;27.00;;
5987;SDS011;3021;51.000;6.980;2022-12-10T05:11:26;63.95;;;27.10;;
5987;SDS011;3021;51.000;6.980;2022-12-10T05:13:53;60.78;;;26.27;;
5987;SDS011;3021;51.000;6.980;2022-12-10T05:16:19;64.55;;;28.48;;
5987;SDS011;3021;51.000;6.980;2022-12-10T05:18:45;65.40;;;27.40;;
5987;SDS011;3021;51.000;6.980;2022-12-10T05:21:12;64.90;;;28.67;;
5987;SDS011;3021;51.000;6.980;2022-12-10T05:23:40;63.80;;;27.77;;
5987;SDS011;3021;51.000;6.980;2022-12-10T05:26:08;70.82;;;28.88;;
5987;SDS011;3021;51.000;6.980;2022-12-10T05:28:35;65.85;;;28.23;;
5987;SDS011;3021;51.000;6.980;2022-12-10T05:31:02;67.65;;;28.45;;
5987;SDS011;3021;51.000;6.980;2022-12-10T05:33:28;63.50;;;26.80;;
5987;SDS011;3021;51.000;6.980;2022-12-10T05:38:23;67.75;;;29.02;;
5987;SDS011;3021;51.000;6.980;2022-12-10T05:40:49;65.43;;;28.88;;
5987;SDS011;3021;51.000;6.980;2022-12-10T05:43:15;64.88;;;28.08;;
5987;SDS011;3021;51.000;6.980;2022-12-10T05:45:40;64.07;;;28.25;;
5987;SDS011;3021;51.000;6.980;2022-12-10T05:48:06;68.80;;;27.20;;
5987;SDS011;3021;51.000;6.980;2022-12-10T05:50:32;63.03;;;27.90;;
5987;SDS011;3021;51.000;6.980;2022-12-10T05:52:57;68.95;;;29.40;;
5987;SDS011;3021;51.000;6.980;2022-12-10T05:55:23;64.35;;;28.30;;
5987;SDS011;3021;51.000;6.980;2022-12-10T05:57:48;71.60;;;29.17;;
5987;SDS011;3021;51.000;6.980;2022-12-10T06:00:14;69.65;;;29.10;;
5987;SDS011;3021;51.000;6.980;2022-12-10T06:02:39;68.22;;;27.85;;
5987;SDS011;3021;51.000;6.980;2022-12-10T06:05:05;67.70;;;28.83;;
5987;SDS011;3021;51.000;6.980;2022-12-10T06:07:30;63.10;;;27.27;;
5987;SDS011;3021;51.000;6.980;2022-12-10T06:09:55;65.60;;;27.92;;
5987;SDS011;3021;51.000;6.980;2022-12-10T06:12:21;62.72;;;28.13;;
5987;SDS011;3021;51.000;6.980;2022-12-10T06:14:46;74.95;;;33.33;;
5987;SDS011;3021;51.000;6.980;2022-12-10T06:17:12;76.43;;;33.85;;
5987;SDS011;3021;51.000;6.980;2022-12-10T06:19:37;74.45;;;32.20;;
5987;SDS011;3021;51.000;6.980;2022-12-10T06:22:02;71.50;;;31.30;;
5987;SDS011;3021;51.000;6.980;2022-12-10T06:24:28;72.35;;;29.92;;
5987;SDS011;3021;51.000;6.980;2022-12-10T06:26:54;73.70;;;30.10;;
5987;SDS011;3021;51.000;6.980;2022-12-10T06:29:19;70.00;;;30.00;;
5987;SDS011;3021;51.000;6.980;2022-12-10T06:31:44;74.78;;;30.75;;
5987;SDS011;3021;51.000;6.980;2022-12-10T06:34:10;68.25;;;29.00;;
5987;SDS011;3021;51.000;6.980;2022-12-10T06:36:35;71.15;;;29.45;;
5987;SDS011;3021;51.000;6.980;2022-12-10T06:39:01;70.22;;;29.17;;
5987;SDS011;3021;51.000;6.980;2022-12-10T06:41:27;76.68;;;30.42;;
5987;SDS011;3021;51.000;6.980;2022-12-10T06:43:53;75.90;;;30.58;;
5987;SDS011;3021;51.000;6.980;2022-12-10T06:46:19;66.82;;;27.80;;
5987;SDS011;3021;51.000;6.980;2022-12-10T06:48:45;67.63;;;28.38;;
5987;SDS011;3021;51.000;6.980;2022-12-10T06:51:11;71.72;;;28.77;;
5987;SDS011;3021;51.000;6.980;2022-12-10T06:53:41;66.78;;;28.27;;
5987;SDS011;3021;51.000;6.980;2022-12-10T06:56:07;68.82;;;29.55;;
5987;SDS011;3021;51.000;6.980;2022-12-10T06:58:36;73.63;;;29.58;;
5987;SDS011;3021;51.000;6.980;2022-12-10T07:01:03;73.82;;;30.30;;
5987;SDS011;3021;51.000;6.980;2022-12-10T07:03:29;66.85;;;28.92;;
5987;SDS011;3021;51.000;6.980;2022-12-10T07:05:56;72.93;;;30.20;;
5987;SDS011;3021;51.000;6.980;2022-12-10T07:08:23;69.50;;;29.98;;
5987;SDS011;3021;51.000;6.980;2022-12-10T07:10:48;68.40;;;28.27;;
5987;SDS011;3021;51.000;6.980;2022-12-10T07:13:13;73.72;;;30.40;;
5987;SDS011;3021;51.000;6.980;2022-12-10T07:15:39;70.07;;;29.27;;
5987;SDS011;3021;51.000;6.980;2022-12-10T07:18:04;71.45;;;29.67;;
5987;SDS011;3021;51.000;6.980;2022-12-10T07:20:29;69.80;;;28.90;;
5987;SDS011;3021;51.000;6.980;2022-12-10T07:22:55;65.55;;;28.08;;
5987;SDS011;3021;51.000;6.980;2022-12-10T07:25:20;68.45;;;28.58;;
5987;SDS011;3021;51.000;6.980;2022-12-10T07:27:45;72.10;;;30.77;;
5987;SDS011;3021;51.000;6.980;2022-12-10T07:30:11;67.00;;;29.10;;
5987;SDS011;3021;51.000;6.980;2022-12-10T07:32:36;70.50;;;29.55;;
5987;SDS011;3021;51.000;6.980;2022-12-10T07:35:02;70.60;;;29.67;;
5987;SDS011;3021;51.000;6.980;2022-12-10T07:37:27;76.22;;;32.13;;
5987;SDS011;3021;51.000;6.980;2022-12-10T07:39:53;61.30;;;27.52;;
5987;SDS011;3021;51.000;6.980;2022-12-10T07:42:18;68.55;;;30.15;;
5987;SDS011;3021;51.000;6.980;2022-12-10T07:44:43;71.50;;;30.27;;
5987;SDS011;3021;51.000;6.980;2022-12-10T07:47:09;73.13;;;30.77;;
5987;SDS011;3021;51.000;6.980;2022-12-10T07:49:34;63.72;;;27.08;;
5987;SDS011;3021;51.000;6.980;2022-12-10T07:51:59;71.10;;;29.58;;
5987;SDS011;3021;51.000;6.980;2022-12-10T07:54:25;63.75;;;27.63;;
5987;SDS011;3021;51.000;6.980;2022-12-10T07:56:50;73.13;;;30.20;;
5987;SDS011;3021;51.000;6.980;2022-12-10T07:59:16;69.13;;;29.20;;
5987;SDS011;3021;51.000;6.980;2022-12-10T08:01:41;69.10;;;30.13;;
5987;SDS011;3021;51.000;6.980;2022-12-10T08:04:07;69.53;;;29.23;;
5987;SDS011;3021;51.000;6.980;2022-12-10T08:06:32;64.05;;;28.92;;
5987;SDS011;3021;51.000;6.980;2022-12-10T08:08:58;67.55;;;28.77;;
5987;SDS011;3021;51.000;6.980;2022-12-10T08:11:24;65.75;;;28.20;;
5987;SDS011;3021;51.000;6.980;2022-12-10T08:13:51;66.10;;;27.05;;
5987;SDS011;3021;51.000;6.980;2022-12-10T08:16:18;60.70;;;27.58;;
5987;SDS011;3021;51.000;6.980;2022-12-10T08:18:44;62.92;;;27.27;;
5987;SDS011;3021;51.000;6.980;2022-12-10T08:21:12;70.28;;;29.00;;
5987;SDS011;3021;51.000;6.980;2022-12-10T08:23:39;59.13;;;27.13;;
5987;SDS011;3021;51.000;6.980;2022-12-10T08:26:06;63.60;;;28.88;;
5987;SDS011;3021;51.000;6.980;2022-12-10T08:28:33;69.35;;;30.42;;
5987;SDS011;3021;51.000;6.980;2022-12-10T08:30:58;66.10;;;28.77;;
5987;SDS011;3021;51.000;6.980;2022-12-10T08:33:24;70.65;;;29.40;;
5987;SDS011;3021;51.000;6.980;2022-12-10T08:35:49;69.18;;;29.35;;
5987;SDS011;3021;51.000;6.980;2022-12-10T08:38:15;69.00;;;29.73;;
5987;SDS011;3021;51.000;6.980;2022-12-10T08:40:41;69.28;;;29.73;;
5987;SDS011;3021;51.000;6.980;2022-12-10T08:43:07;77.20;;;34.47;;
5987;SDS011;3021;51.000;6.980;2022-12-10T08:45:32;76.07;;;33.60;;
5987;SDS011;3021;51.000;6.980;2022-12-10T08:47:58;83.22;;;35.03;;
5987;SDS011;3021;51.000;6.980;2022-12-10T08:50:23;88.97;;;36.42;;
5987;SDS011;3021;51.000;6.980;2022-12-10T08:52:48;92.30;;;38.40;;
5987;SDS011;3021;51.000;6.980;2022-12-10T08:55:14;96.20;;;38.83;;
5987;SDS011;3021;51.000;6.980;2022-12-10T08:57:39;96.63;;;40.22;;
5987;SDS011;3021;51.000;6.980;2022-12-10T09:00:05;97.07;;;39.15;;
5987;SDS011;3021;51.000;6.980;2022-12-10T09:02:31;93.88;;;37.47;;
5987;SDS011;3021;51.000;6.980;2022-12-10T09:04:56;98.35;;;38.55;;
5987;SDS011;3021;51.000;6.980;2022-12-10T09:07:21;99.50;;;40.33;;
5987;SDS011;3021;51.000;6.980;2022-12-10T09:09:47;101.43;;;40.17;;
5987;SDS011;3021;51.000;6.980;2022-12-10T09:12:12;97.03;;;40.00;;
5987;SDS011;3021;51.000;6.980;2022-12-10T09:14:37;111.05;;;43.42;;
5987;SDS011;3021;51.000;6.980;2022-12-10T09:17:07;104.97;;;41.72;;
5987;SDS011;3021;51.000;6.980;2022-12-10T09:19:32;121.18;;;43.83;;
5987;SDS011;3021;51.000;6.980;2022-12-10T09:21:58;118.32;;;44.38;;
5987;SDS011;3021;51.000;6.980;2022-12-10T09:24:23;113.55;;;44.80;;
5987;SDS011;3021;51.000;6.980;2022-12-10T09:26:49;124.80;;;49.63;;
5987;SDS011;3021;51.000;6.980;2022-12-10T09:29:14;119.38;;;45.75;;
5987;SDS011;3021;51.000;6.980;2022-12-10T09:31:39;121.10;;;45.15;;
5987;SDS011;3021;51.000;6.980;2022-12-10T09:34:05;117.57;;;44.00;;
5987;SDS011;3021;51.000;6.980;2022-12-10T09:36:30;106.05;;;44.03;;
5987;SDS011;3021;51.000;6.980;2022-12-10T09:38:56;116.50;;;44.15;;
5987;SDS011;3021;51.000;6.980;2022-12-10T09:47:11;113.20;;;43.63;;
5987;SDS011;3021;51.000;6.980;2022-12-10T09:52:15;106.93;;;42.95;;
5987;SDS011;3021;51.000;6.980;2022-12-10T09:54:45;103.85;;;42.25;;
5987;SDS011;3021;51.000;6.980;2022-12-10T09:57:23;111.97;;;43.75;;
5987;SDS011;3021;51.000;6.980;2022-12-10T09:59:53;111.57;;;43.45;;
5987;SDS011;3021;51.000;6.980;2022-12-10T10:02:21;108.22;;;43.00;;
5987;SDS011;3021;51.000;6.980;2022-12-10T10:05:00;111.22;;;43.25;;
5987;SDS011;3021;51.000;6.980;2022-12-10T10:07:36;110.80;;;42.80;;
5987;SDS011;3021;51.000;6.980;2022-12-10T10:10:10;116.38;;;42.97;;
5987;SDS011;3021;51.000;6.980;2022-12-10T10:12:46;106.35;;;41.00;;
5987;SDS011;3021;51.000;6.980;2022-12-10T10:15:13;103.82;;;42.83;;
5987;SDS011;3021;51.000;6.980;2022-12-10T10:17:41;105.88;;;41.40;;
5987;SDS011;3021;51.000;6.980;2022-12-10T10:20:10;105.75;;;40.83;;
5987;SDS011;3021;51.000;6.980;2022-12-10T10:22:37;102.18;;;40.40;;
5987;SDS011;3021;51.000;6.980;2022-12-10T10:25:03;104.97;;;42.95;;
5987;SDS011;3021;51.000;6.980;2022-12-10T10:27:31;94.22;;;39.15;;
5987;SDS011;3021;51.000;6.980;2022-12-10T10:29:59;97.72;;;38.03;;
5987;SDS011;3021;51.000;6.980;2022-12-10T10:35:00;94.15;;;38.03;;
5987;SDS011;3021;51.000;6.980;2022-12-10T10:37:27;91.97;;;36.88;;
5987;SDS011;3021;51.000;6.980;2022-12-10T10:39:55;93.45;;;38.35;;
5987;SDS011;3021;51.000;6.980;2022-12-10T10:42:35;93.60;;;39.42;;
5987;SDS011;3021;51.000;6.980;2022-12-10T10:45:06;96.50;;;39.58;;
5987;SDS011;3021;51.000;6.980;2022-12-10T10:48:03;87.07;;;38.20;;
5987;SDS011;3021;51.000;6.980;2022-12-10T10:50:44;95.13;;;39.08;;
5987;SDS011;3021;51.000;6.980;2022-12-10T10:53:20;93.75;;;38.22;;
5987;SDS011;3021;51.000;6.980;2022-12-10T10:55:45;86.30;;;37.28;;
5987;SDS011;3021;51.000;6.980;2022-12-10T10:58:21;89.20;;;37.88;;
5987;SDS011;3021;51.000;6.980;2022-12-10T11:00:58;90.70;;;38.45;;
5987;SDS011;3021;51.000;6.980;2022-12-10T11:03:24;79.65;;;36.45;;
5987;SDS011;3021;51.000;6.980;2022-12-10T11:05:51;83.10;;;35.67;;
5987;SDS011;3021;51.000;6.980;2022-12-10T11:08:17;85.95;;;38.08;;
5987;SDS011;3021;51.000;6.980;2022-12-10T11:10:51;88.75;;;36.85;;
5987;SDS011;3021;51.000;6.980;2022-12-10T11:13:26;80.65;;;35.42;;
5987;SDS011;3021;51.000;6.980;2022-12-10T11:15:58;86.05;;;37.35;;
5987;SDS011;3021;51.000;6.980;2022-12-10T11:18:34;86.20;;;39.33;;
5987;SDS011;3021;51.000;6.980;2022-12-10T11:21:06;88.30;;;36.75;;
5987;SDS011;3021;51.000;6.980;2022-12-10T11:23:41;85.47;;;36.80;;
5987;SDS011;3021;51.000;6.980;2022-12-10T11:26:21;85.38;;;37.35;;
5987;SDS011;3021;51.000;6.980;2022-12-10T12:00:05;62.43;;;27.83;;
5987;SDS011;3021;51.000;6.980;2022-12-10T12:16:17;75.43;;;32.67;;
5987;SDS011;3021;51.000;6.980;2022-12-10T12:18:51;76.25;;;32.30;;
5987;SDS011;3021;51.000;6.980;2022-12-10T12:21:21;80.07;;;34.53;;
5987;SDS011;3021;51.000;6.980;2022-12-10T12:23:51;77.65;;;32.67;;
5987;SDS011;3021;51.000;6.980;2022-12-10T12:26:37;78.25;;;32.15;;
5987;SDS011;3021;51.000;6.980;2022-12-10T12:31:47;71.10;;;30.27;;
5987;SDS011;3021;51.000;6.980;2022-12-10T12:37:10;69.32;;;29.88;;
5987;SDS011;3021;51.000;6.980;2022-12-10T12:39:46;66.00;;;29.05;;
5987;SDS011;3021;51.000;6.980;2022-12-10T12:42:27;58.88;;;26.70;;
5987;SDS011;3021;51.000;6.980;2022-12-10T12:47:39;61.05;;;25.38;;
5987;SDS011;3021;51.000;6.980;2022-12-10T12:50:19;45.92;;;20.23;;
5987;SDS011;3021;51.000;6.980;2022-12-10T12:52:52;66.68;;;27.95;;
5987;SDS011;3021;51.000;6.980;2022-12-10T12:55:26;58.70;;;26.67;;
5987;SDS011;3021;51.000;6.980;2022-12-10T12:58:20;56.53;;;25.55;;
5987;SDS011;3021;51.000;6.980;2022-12-10T13:00:52;56.00;;;24.92;;
5987;SDS011;3021;51.000;6.980;2022-12-10T13:08:41;60.03;;;25.23;;
5987;SDS011;3021;51.000;6.980;2022-12-10T13:13:39;53.53;;;25.20;;
5987;SDS011;3021;51.000;6.980;2022-12-10T13:22:00;56.87;;;25.67;;
5987;SDS011;3021;51.000;6.980;2022-12-10T13:27:32;56.40;;;24.75;;
5987;SDS011;3021;51.000;6.980;2022-12-10T13:30:25;62.38;;;27.85;;
5987;SDS011;3021;51.000;6.980;2022-12-10T13:33:05;57.55;;;26.75;;
5987;SDS011;3021;51.000;6.980;2022-12-10T13:35:43;60.88;;;25.30;;
5987;SDS011;3021;51.000;6.980;2022-12-10T13:38:21;72.38;;;31.10;;
5987;SDS011;3021;51.000;6.980;2022-12-10T13:40:59;57.17;;;27.40;;
5987;SDS011;3021;51.000;6.980;2022-12-10T13:43:56;66.45;;;28.15;;
5987;SDS011;3021;51.000;6.980;2022-12-10T13:46:52;56.13;;;26.15;;
5987;SDS011;3021;51.000;6.980;2022-12-10T13:49:25;59.78;;;27.85;;
5987;SDS011;3021;51.000;6.980;2022-12-10T14:00:15;60.47;;;27.70;;
5987;SDS011;3021;51.000;6.980;2022-12-10T14:08:02;62.00;;;28.48;;
5987;SDS011;3021;51.000;6.980;2022-12-10T14:10:31;62.08;;;28.88;;
5987;SDS011;3021;51.000;6.980;2022-12-10T14:13:03;71.05;;;28.77;;
5987;SDS011;3021;51.000;6.980;2022-12-10T14:15:30;64.35;;;30.13;;
5987;SDS011;3021;51.000;6.980;2022-12-10T14:18:00;60.65;;;28.67;;
5987;SDS011;3021;51.000;6.980;2022-12-10T14:20:29;65.85;;;29.70;;
5987;SDS011;3021;51.000;6.980;2022-12-10T14:22:57;64.55;;;29.48;;
5987;SDS011;3021;51.000;6.980;2022-12-10T14:25:47;66.72;;;30.02;;
5987;SDS011;3021;51.000;6.980;2022-12-10T14:28:13;67.53;;;29.85;;
5987;SDS011;3021;51.000;6.980;2022-12-10T14:30:42;68.03;;;30.10;;
5987;SDS011;3021;51.000;6.980;2022-12-10T14:33:10;69.35;;;30.85;;
5987;SDS011;3021;51.000;6.980;2022-12-10T14:35:40;70.05;;;31.15;;
5987;SDS011;3021;51.000;6.980;2022-12-10T14:38:06;71.13;;;31.70;;
5987;SDS011;3021;51.000;6.980;2022-12-10T14:40:45;74.18;;;31.23;;
5987;SDS011;3021;51.000;6.980;2022-12-10T14:43:18;67.72;;;31.88;;
5987;SDS011;3021;51.000;6.980;2022-12-10T14:45:51;69.00;;;30.77;;
5987;SDS011;3021;51.000;6.980;2022-12-10T14:48:20;74.55;;;32.05;;
5987;SDS011;3021;51.000;6.980;2022-12-10T14:50:45;69.53;;;30.30;;
5987;SDS011;3021;51.000;6.980;2022-12-10T14:53:12;73.65;;;32.00;;
5987;SDS011;3021;51.000;6.980;2022-12-10T14:55:42;75.00;;;34.15;;
5987;SDS011;3021;51.000;6.980;2022-12-10T14:58:13;74.93;;;36.60;;
5987;SDS011;3021;51.000;6.980;2022-12-10T15:00:54;69.22;;;32.42;;
5987;SDS011;3021;51.000;6.980;2022-12-10T15:03:27;75.13;;;34.15;;
5987;SDS011;3021;51.000;6.980;2022-12-10T15:05:56;72.07;;;33.58;;
5987;SDS011;3021;51.000;6.980;2022-12-10T15:08:25;75.38;;;35.17;;
5987;SDS011;3021;51.000;6.980;2022-12-10T15:10:52;75.72;;;34.65;;
5987;SDS011;3021;51.000;6.980;2022-12-10T15:13:22;70.75;;;33.92;;
5987;SDS011;3021;51.000;6.980;2022-12-10T15:15:56;81.90;;;36.75;;
5987;SDS011;3021;51.000;6.980;2022-12-10T15:18:30;82.57;;;36.95;;
5987;SDS011;3021;51.000;6.980;2022-12-10T15:21:11;75.32;;;34.60;;
5987;SDS011;3021;51.000;6.980;2022-12-10T15:23:41;79.43;;;35.05;;
5987;SDS011;3021;51.000;6.980;2022-12-10T15:26:23;78.88;;;34.22;;
5987;SDS011;3021;51.000;6.980;2022-12-10T15:29:14;78.15;;;33.72;;
5987;SDS011;3021;51.000;6.980;2022-12-10T15:31:47;75.95;;;34.08;;
5987;SDS011;3021;51.000;6.980;2022-12-10T15:34:14;76.90;;;34.20;;
5987;SDS011;3021;51.000;6.980;2022-12-10T15:36:52;78.18;;;35.13;;
5987;SDS011;3021;51.000;6.980;2022-12-10T15:39:20;81.60;;;35.78;;
5987;SDS011;3021;51.000;6.980;2022-12-10T15:41:55;79.15;;;34.88;;
5987;SDS011;3021;51.000;6.980;2022-12-10T15:47:17;90.20;;;37.30;;
5987;SDS011;3021;51.000;6.980;2022-12-10T15:52:21;78.55;;;34.50;;
5987;SDS011;3021;51.000;6.980;2022-12-10T15:54:48;79.10;;;34.05;;
5987;SDS011;3021;51.000;6.980;2022-12-10T15:57:22;77.90;;;33.00;;
5987;SDS011;3021;51.000;6.980;2022-12-10T15:59:52;79.70;;;33.65;;
5987;SDS011;3021;51.000;6.980;2022-12-10T16:05:03;72.97;;;33.55;;
5987;SDS011;3021;51.000;6.980;2022-12-10T16:10:02;71.20;;;31.20;;
5987;SDS011;3021;51.000;6.980;2022-12-10T16:12:28;73.25;;;32.42;;
5987;SDS011;3021;51.000;6.980;2022-12-10T16:14:54;79.90;;;34.65;;
5987;SDS011;3021;51.000;6.980;2022-12-10T16:17:24;72.68;;;32.85;;
5987;SDS011;3021;51.000;6.980;2022-12-10T16:19:53;80.32;;;33.35;;
5987;SDS011;3021;51.000;6.980;2022-12-10T16:22:22;85.30;;;34.08;;
5987;SDS011;3021;51.000;6.980;2022-12-10T16:24:48;73.75;;;32.17;;
5987;SDS011;3021;51.000;6.980;2022-12-10T16:27:14;73.40;;;32.42;;
5987;SDS011;3021;51.000;6.980;2022-12-10T16:29:40;83.68;;;35.35;;
5987;SDS011;3021;51.000;6.980;2022-12-10T16:32:09;88.10;;;37.63;;
5987;SDS011;3021;51.000;6.980;2022-12-10T16:34:36;83.22;;;36.03;;
5987;SDS011;3021;51.000;6.980;2022-12-10T16:37:01;77.53;;;33.28;;
5987;SDS011;3021;51.000;6.980;2022-12-10T16:39:26;78.25;;;34.90;;
5987;SDS011;3021;51.000;6.980;2022-12-10T16:41:53;78.60;;;35.30;;
5987;SDS011;3021;51.000;6.980;2022-12-10T16:44:18;79.90;;;35.80;;
5987;SDS011;3021;51.000;6.980;2022-12-10T16:46:44;78.43;;;35.40;;
5987;SDS011;3021;51.000;6.980;2022-12-10T16:49:09;79.93;;;33.92;;
5987;SDS011;3021;51.000;6.980;2022-12-10T16:51:35;77.93;;;35.10;;
5987;SDS011;3021;51.000;6.980;2022-12-10T16:54:01;84.38;;;36.20;;
5987;SDS011;3021;51.000;6.980;2022-12-10T16:56:28;81.57;;;35.83;;
5987;SDS011;3021;51.000;6.980;2022-12-10T16:58:54;78.22;;;33.30;;
5987;SDS011;3021;51.000;6.980;2022-12-10T17:01:20;84.47;;;38.08;;